Time;durP1;ratioP1;P1;durP2;ratioP2;P2;SDS_P1;SDS_P2;PMS_P1;PMS_P2;Temp;Humidity;BMP_temperature;BMP_pressure;BME280_temperature;BME280_humidity;BME280_pressure;Samples;Min_cycle;Max_cycle;Signal;HPM_P1;HPM_P2
2021/12/11 00:01:19;;;;;;;48.85;27.10;;;;;;;0.78;100.00;100476.16;5025540;28;20032;-70
2021/12/11 00:03:49;;;;;;;47.20;27.33;;;;;;;0.78;100.00;100486.97;5025187;28;20049;-70
2021/12/11 00:06:23;;;;;;;48.10;26.17;;;;;;;0.76;100.00;100489.84;5032353;28;20044;-70
2021/12/11 00:08:52;;;;;;;46.28;25.65;;;;;;;0.71;100.00;100489.53;5045015;28;20483;-71
2021/12/11 00:11:23;;;;;;;47.90;27.67;;;;;;;0.72;100.00;100491.22;5044614;28;20020;-70
2021/12/11 00:13:53;;;;;;;57.05;28.80;;;;;;;0.74;100.00;100496.44;5044306;28;20040;-71
2021/12/11 00:16:22;;;;;;;50.95;27.90;;;;;;;0.70;100.00;100514.88;5045068;28;20452;-70
2021/12/11 00:18:54;;;;;;;47.03;26.92;;;;;;;0.69;100.00;100509.66;5044515;28;20162;-72
2021/12/11 00:21:21;;;;;;;45.70;25.98;;;;;;;0.66;100.00;100518.97;5043758;28;20410;-71
2021/12/11 00:24:05;;;;;;;47.70;26.33;;;;;;;0.64;100.00;100522.84;5045311;28;20033;-70
2021/12/11 00:26:37;;;;;;;48.60;27.98;;;;;;;0.60;100.00;100522.34;5045287;28;20491;-70
2021/12/11 00:29:04;;;;;;;49.08;27.85;;;;;;;0.60;100.00;100530.44;5045021;28;20025;-69
2021/12/11 00:31:31;;;;;;;55.43;29.77;;;;;;;0.61;100.00;100525.88;5045396;28;20029;-71
2021/12/11 00:33:57;;;;;;;67.68;32.15;;;;;;;0.67;100.00;100538.72;5043329;28;20291;-71
2021/12/11 00:36:31;;;;;;;67.32;33.08;;;;;;;0.72;100.00;100544.44;5044810;28;20037;-71
2021/12/11 00:39:12;;;;;;;58.47;30.90;;;;;;;0.74;100.00;100554.03;5045351;28;20052;-70
2021/12/11 00:41:39;;;;;;;60.50;31.25;;;;;;;0.75;100.00;100550.31;5044294;28;20021;-72
2021/12/11 00:44:05;;;;;;;69.43;33.10;;;;;;;0.75;100.00;100560.28;5045078;28;20020;-72
2021/12/11 00:46:32;;;;;;;58.58;32.28;;;;;;;0.75;100.00;100568.41;5045327;28;20048;-72
2021/12/11 00:49:11;;;;;;;60.53;32.33;;;;;;;0.74;100.00;100572.13;5044212;28;20078;-72
2021/12/11 00:51:37;;;;;;;59.92;31.67;;;;;;;0.69;100.00;100579.91;5043571;28;20029;-72
2021/12/11 00:54:02;;;;;;;53.75;29.67;;;;;;;0.65;100.00;100581.25;5029708;28;20025;-70
2021/12/11 00:56:31;;;;;;;61.05;29.75;;;;;;;0.61;100.00;100588.03;5034999;28;20024;-72
2021/12/11 00:59:00;;;;;;;60.97;31.13;;;;;;;0.58;100.00;100588.38;5045285;28;20057;-72
2021/12/11 01:01:31;;;;;;;51.65;29.63;;;;;;;0.49;100.00;100593.78;5044043;28;20083;-72
2021/12/11 01:04:11;;;;;;;48.42;27.00;;;;;;;0.46;100.00;100604.97;5043977;28;20057;-72
2021/12/11 01:06:49;;;;;;;55.67;29.33;;;;;;;0.43;100.00;100599.06;5044421;28;20789;-72
2021/12/11 01:09:23;;;;;;;55.22;30.30;;;;;;;0.35;100.00;100601.75;5044181;28;20067;-72
2021/12/11 01:11:56;;;;;;;54.13;28.33;;;;;;;0.28;100.00;100609.69;5043825;28;20033;-72
2021/12/11 01:14:35;;;;;;;49.95;28.50;;;;;;;0.23;100.00;100615.59;5042666;28;20540;-71
2021/12/11 01:17:12;;;;;;;51.47;28.15;;;;;;;0.21;100.00;100622.22;5044813;28;20502;-72
2021/12/11 01:19:40;;;;;;;53.00;28.30;;;;;;;0.18;100.00;100620.69;5043648;28;20032;-73
2021/12/11 01:22:35;;;;;;;54.33;29.35;;;;;;;0.17;100.00;100632.50;5044364;28;20025;-71
2021/12/11 01:25:18;;;;;;;55.28;28.63;;;;;;;0.15;100.00;100644.47;5044981;28;20017;-72
2021/12/11 01:27:48;;;;;;;53.17;29.10;;;;;;;0.13;100.00;100644.63;5043402;28;20033;-71
2021/12/11 01:30:17;;;;;;;53.58;28.48;;;;;;;0.13;100.00;100650.03;5044205;28;20033;-72
2021/12/11 01:32:43;;;;;;;56.95;29.05;;;;;;;0.12;100.00;100653.75;5043103;28;20036;-72
2021/12/11 01:35:11;;;;;;;55.08;29.02;;;;;;;0.12;100.00;100661.03;5044255;28;20029;-71
2021/12/11 01:37:38;;;;;;;58.75;32.92;;;;;;;0.14;100.00;100667.09;5044186;28;20146;-71
2021/12/11 01:40:08;;;;;;;56.58;29.13;;;;;;;0.13;100.00;100674.34;5043751;28;20166;-71
2021/12/11 01:42:34;;;;;;;56.78;29.88;;;;;;;0.12;100.00;100682.63;5042960;28;20469;-71
2021/12/11 01:45:02;;;;;;;48.83;27.25;;;;;;;0.07;100.00;100687.69;5043021;28;20388;-71
2021/12/11 01:47:31;;;;;;;42.28;24.92;;;;;;;0.01;100.00;100689.19;5043057;28;20025;-72
2021/12/11 01:50:13;;;;;;;40.40;24.35;;;;;;;-0.04;100.00;100694.25;5044102;28;20064;-72
2021/12/11 01:53:00;;;;;;;47.03;24.65;;;;;;;-0.05;100.00;100703.31;5042416;28;20451;-72
2021/12/11 01:55:37;;;;;;;48.90;27.35;;;;;;;-0.09;100.00;100710.94;5043652;28;20120;-71
2021/12/11 01:58:05;;;;;;;47.88;29.15;;;;;;;-0.07;100.00;100717.00;5043494;28;20025;-71
2021/12/11 02:00:37;;;;;;;51.60;29.08;;;;;;;-0.08;100.00;100722.56;5044410;28;20472;-71
2021/12/11 02:03:08;;;;;;;45.65;26.35;;;;;;;-0.09;100.00;100729.00;5042725;28;20037;-71
2021/12/11 02:05:35;;;;;;;52.03;28.60;;;;;;;-0.09;100.00;100732.53;5025302;28;20099;-72
2021/12/11 02:08:07;;;;;;;56.85;30.40;;;;;;;-0.06;100.00;100740.28;5024285;28;20033;-71
2021/12/11 02:10:40;;;;;;;63.15;31.05;;;;;;;-0.03;100.00;100747.22;5034335;28;20086;-71
2021/12/11 02:13:10;;;;;;;59.10;30.83;;;;;;;-0.04;100.00;100751.78;5042348;28;20119;-71
2021/12/11 02:15:45;;;;;;;57.40;30.80;;;;;;;-0.04;100.00;100750.94;5043423;28;20382;-72
2021/12/11 02:18:17;;;;;;;59.50;29.20;;;;;;;-0.09;100.00;100753.28;5042413;28;20013;-71
2021/12/11 02:20:53;;;;;;;60.38;30.17;;;;;;;-0.12;100.00;100754.44;5024019;28;20022;-72
2021/12/11 02:23:19;;;;;;;55.35;28.50;;;;;;;-0.13;100.00;100768.09;5023692;28;20630;-71
2021/12/11 02:25:49;;;;;;;56.28;30.05;;;;;;;-0.19;100.00;100766.91;5023887;28;20026;-71
2021/12/11 02:28:19;;;;;;;49.13;26.20;;;;;;;-0.24;100.00;100766.56;5023408;28;20054;-71
2021/12/11 02:30:50;;;;;;;49.35;25.75;;;;;;;-0.28;100.00;100771.41;5023825;28;20022;-71
2021/12/11 02:33:45;;;;;;;55.53;28.35;;;;;;;-0.26;100.00;100777.50;5025388;28;20025;-71
2021/12/11 02:36:23;;;;;;;55.08;29.00;;;;;;;-0.21;100.00;100782.41;5030758;28;20103;-71
2021/12/11 02:39:03;;;;;;;59.63;29.73;;;;;;;-0.13;100.00;100787.00;5046060;28;20551;-72
2021/12/11 02:41:41;;;;;;;61.05;31.42;;;;;;;-0.09;100.00;100789.22;5047566;28;20037;-71
2021/12/11 02:44:39;;;;;;;61.03;31.23;;;;;;;-0.01;100.00;100794.63;5047047;28;20049;-71
2021/12/11 02:47:25;;;;;;;67.43;32.88;;;;;;;0.10;100.00;100798.03;5046521;28;20108;-72
2021/12/11 02:50:03;;;;;;;62.60;32.95;;;;;;;0.14;100.00;100805.66;5047370;28;20455;-72
2021/12/11 02:52:58;;;;;;;64.15;33.58;;;;;;;0.19;100.00;100800.59;5047124;28;20021;-71
2021/12/11 02:55:40;;;;;;;59.50;31.25;;;;;;;0.22;100.00;100804.84;5041476;28;20453;-71
2021/12/11 02:58:14;;;;;;;62.83;31.80;;;;;;;0.24;100.00;100808.22;5046711;28;20028;-71
2021/12/11 03:00:52;;;;;;;63.38;30.17;;;;;;;0.25;100.00;100816.16;5027754;28;20107;-71
2021/12/11 03:03:22;;;;;;;;;;;;;;;0.34;100.00;100825.13;5026109;28;20025;-72
2021/12/11 03:06:04;;;;;;;57.58;29.20;;;;;;;0.30;100.00;100828.31;5026535;28;20350;-71
2021/12/11 03:08:30;;;;;;;57.03;26.55;;;;;;;0.24;100.00;100829.81;5043043;28;20029;-71
2021/12/11 03:11:01;;;;;;;57.67;28.38;;;;;;;0.19;100.00;100832.16;5045972;28;20096;-71
2021/12/11 03:13:29;;;;;;;54.28;27.45;;;;;;;0.19;100.00;100824.91;5047178;28;20021;-72
2021/12/11 03:15:55;;;;;;;;;;;;;;;0.28;100.00;100838.44;5047122;28;20024;-72
2021/12/11 03:18:20;;;;;;;51.05;25.80;;;;;;;0.23;100.00;100838.94;5044953;28;19920;-73
2021/12/11 03:20:48;;;;;;;53.92;28.17;;;;;;;0.23;100.00;100849.75;5026666;28;20021;-71
2021/12/11 03:23:14;;;;;;;54.08;29.83;;;;;;;0.21;100.00;100840.97;5035669;28;20115;-71
2021/12/11 03:25:39;;;;;;;53.95;29.75;;;;;;;0.22;100.00;100846.19;5045484;28;20527;-72
2021/12/11 03:28:06;;;;;;;69.20;33.90;;;;;;;0.23;100.00;100845.19;5046590;28;20021;-73
2021/12/11 03:30:35;;;;;;;61.10;32.17;;;;;;;0.23;100.00;100850.59;5046506;28;20360;-71
2021/12/11 03:33:05;;;;;;;58.38;32.60;;;;;;;0.21;100.00;100854.47;5045459;28;20163;-71
2021/12/11 03:35:31;;;;;;;53.28;30.35;;;;;;;0.18;100.00;100852.09;5046718;28;20032;-71
2021/12/11 03:37:57;;;;;;;60.72;30.58;;;;;;;0.13;100.00;100859.84;5046461;28;20130;-72
2021/12/11 03:40:25;;;;;;;63.10;32.78;;;;;;;0.09;100.00;100866.56;5043949;28;20110;-71
2021/12/11 03:42:52;;;;;;;57.67;29.50;;;;;;;0.10;100.00;100868.25;5046403;28;20095;-72
2021/12/11 03:45:24;;;;;;;59.53;32.70;;;;;;;0.09;100.00;100867.41;5044461;28;20816;-72
2021/12/11 03:47:54;;;;;;;59.33;29.45;;;;;;;0.06;100.00;100873.16;5045363;28;20021;-72
2021/12/11 03:50:21;;;;;;;58.72;28.70;;;;;;;0.02;100.00;100868.22;5045693;28;20094;-72
2021/12/11 03:52:50;;;;;;;51.88;28.38;;;;;;;-0.01;100.00;100874.78;5045719;28;20029;-71
2021/12/11 03:55:23;;;;;;;59.08;28.90;;;;;;;-0.05;100.00;100868.88;5045611;28;20027;-71
2021/12/11 03:57:57;;;;;;;60.47;31.02;;;;;;;-0.03;100.00;100879.50;5046403;28;20021;-71
2021/12/11 04:00:24;;;;;;;53.03;30.25;;;;;;;-0.01;100.00;100872.94;5030583;28;20029;-71
2021/12/11 04:02:52;;;;;;;53.85;31.17;;;;;;;-0.01;100.00;100874.78;5045009;28;20096;-71
2021/12/11 04:05:21;;;;;;;53.60;29.80;;;;;;;-0.04;100.00;100884.06;5045059;28;20043;-71
2021/12/11 04:07:50;;;;;;;59.75;29.30;;;;;;;-0.08;100.00;100879.16;5045412;28;20013;-71
2021/12/11 04:10:18;;;;;;;57.90;31.92;;;;;;;-0.09;100.00;100888.25;5045275;28;20025;-71
2021/12/11 04:12:44;;;;;;;60.53;31.23;;;;;;;-0.14;100.00;100891.44;5045399;28;20028;-71
2021/12/11 04:15:11;;;;;;;63.33;30.35;;;;;;;-0.15;100.00;100897.84;5045544;28;20029;-71
2021/12/11 04:17:38;;;;;;;62.83;31.98;;;;;;;-0.12;100.00;100900.22;5043615;28;20032;-72
2021/12/11 04:20:09;;;;;;;60.92;30.55;;;;;;;-0.09;100.00;100899.91;5030468;28;20040;-71
2021/12/11 04:22:34;;;;;;;55.25;30.67;;;;;;;-0.05;100.00;100912.06;5025906;28;20026;-71
2021/12/11 04:25:00;;;;;;;55.67;28.55;;;;;;;-0.01;100.00;100920.69;5026348;28;20514;-71
2021/12/11 04:27:27;;;;;;;49.67;27.65;;;;;;;0.05;100.00;100917.38;5025267;28;20491;-71
2021/12/11 04:29:53;;;;;;;51.97;27.73;;;;;;;0.13;100.00;100920.09;5025879;28;20025;-72
2021/12/11 04:32:20;;;;;;;57.25;28.90;;;;;;;0.18;100.00;100930.41;5024210;28;20033;-71
2021/12/11 04:34:47;;;;;;;53.05;27.50;;;;;;;0.24;100.00;100924.34;5036179;28;20025;-71
2021/12/11 04:37:19;;;;;;;51.75;28.17;;;;;;;0.24;100.00;100924.34;5045005;28;20028;-71
2021/12/11 04:39:51;;;;;;;51.50;27.55;;;;;;;0.28;100.00;100924.88;5044822;28;20021;-71
2021/12/11 04:42:38;;;;;;;53.80;29.33;;;;;;;0.28;100.00;100927.59;5043083;28;20036;-71
2021/12/11 04:45:07;;;;;;;58.97;31.23;;;;;;;0.28;100.00;100938.38;5044381;28;20373;-71
2021/12/11 04:47:40;;;;;;;62.75;32.75;;;;;;;0.31;100.00;100943.47;5044385;28;20033;-71
2021/12/11 04:50:16;;;;;;;60.10;32.65;;;;;;;0.33;100.00;100953.09;5043177;28;20028;-71
2021/12/11 04:52:54;;;;;;;67.15;33.63;;;;;;;0.36;100.00;100950.09;5045111;28;20476;-71
2021/12/11 04:55:41;;;;;;;67.88;33.88;;;;;;;0.41;100.00;100950.44;5043977;28;20083;-71
2021/12/11 04:58:39;;;;;;;61.47;32.20;;;;;;;0.48;100.00;100956.03;5044597;28;20021;-71
2021/12/11 05:01:16;;;;;;;60.92;31.20;;;;;;;0.54;100.00;100949.13;5041723;28;20616;-71
2021/12/11 05:06:41;;;;;;;61.42;31.60;;;;;;;0.68;100.00;100962.03;5044548;28;20091;-71
2021/12/11 05:12:19;;;;;;;54.47;28.73;;;;;;;0.71;100.00;100973.38;5044000;28;20116;-71
2021/12/11 05:14:45;;;;;;;60.28;30.38;;;;;;;0.73;100.00;100981.31;5044669;28;20044;-72
2021/12/11 05:17:11;;;;;;;55.05;29.17;;;;;;;0.72;100.00;100980.47;5023514;28;20480;-71
2021/12/11 05:19:38;;;;;;;55.50;31.00;;;;;;;0.74;100.00;100993.81;5024466;28;20152;-71
2021/12/11 05:22:05;;;;;;;56.20;27.45;;;;;;;0.74;100.00;100993.81;5024336;28;20079;-71
2021/12/11 05:24:31;;;;;;;54.10;27.70;;;;;;;0.80;100.00;100997.72;5023374;28;20014;-71
2021/12/11 05:26:56;;;;;;;55.17;28.08;;;;;;;0.85;100.00;101004.31;5024261;28;20505;-71
2021/12/11 05:29:22;;;;;;;54.80;28.83;;;;;;;0.90;100.00;100983.03;5024691;28;20061;-71
2021/12/11 05:31:47;;;;;;;61.20;29.85;;;;;;;0.94;100.00;100987.13;5023749;28;20030;-70
2021/12/11 05:34:13;;;;;;;65.25;30.67;;;;;;;0.99;100.00;100992.88;5023946;28;20032;-71
2021/12/11 05:36:38;;;;;;;70.47;32.08;;;;;;;1.04;100.00;100995.09;5025905;28;20021;-70
2021/12/11 05:39:14;;;;;;;68.50;32.83;;;;;;;1.11;100.00;100995.25;5024013;28;20344;-70
2021/12/11 05:41:40;;;;;;;66.45;31.33;;;;;;;1.19;100.00;101001.56;5023445;28;20152;-71
2021/12/11 05:44:08;;;;;;;75.90;33.88;;;;;;;1.23;100.00;101002.06;5024198;28;20040;-70
2021/12/11 05:46:33;;;;;;;65.97;31.77;;;;;;;1.26;100.00;101009.84;5024602;28;20039;-71
2021/12/11 05:48:59;;;;;;;68.07;32.72;;;;;;;1.32;100.00;101013.72;5023386;28;20026;-71
2021/12/11 05:51:25;;;;;;;69.55;31.30;;;;;;;1.36;100.00;101012.41;5034912;28;20033;-70
2021/12/11 05:53:54;;;;;;;68.88;30.92;;;;;;;1.39;100.00;101015.63;5042959;28;20029;-70
2021/12/11 05:56:21;;;;;;;69.40;30.98;;;;;;;1.44;100.00;101015.13;5023293;28;20033;-70
2021/12/11 05:58:56;;;;;;;64.43;30.55;;;;;;;1.45;100.00;101017.66;5024338;28;20029;-70
2021/12/11 06:01:36;;;;;;;57.15;28.17;;;;;;;1.43;100.00;101019.69;5023897;28;20593;-70
2021/12/11 06:04:09;;;;;;;69.05;31.73;;;;;;;1.47;100.00;101018.34;5024005;28;20045;-70
2021/12/11 06:06:37;;;;;;;65.35;29.52;;;;;;;1.51;100.00;101013.44;5023934;28;20034;-70
2021/12/11 06:09:05;;;;;;;64.75;30.33;;;;;;;1.50;100.00;101020.72;5026598;28;20032;-69
2021/12/11 06:11:31;;;;;;;68.30;30.80;;;;;;;1.48;100.00;101020.03;5028412;28;20029;-70
2021/12/11 06:13:56;;;;;;;64.63;30.38;;;;;;;1.45;100.00;101020.34;5026820;28;20060;-71
2021/12/11 06:16:21;;;;;;;69.68;31.48;;;;;;;1.46;100.00;101021.19;5026382;28;20041;-70
2021/12/11 06:18:47;;;;;;;66.40;31.60;;;;;;;1.45;100.00;101031.19;5025937;28;20032;-71
2021/12/11 06:21:14;;;;;;;75.50;33.15;;;;;;;1.48;100.00;101039.00;5026858;28;20029;-70
2021/12/11 06:23:40;;;;;;;67.80;31.42;;;;;;;1.50;100.00;101030.69;5028057;28;20031;-70
2021/12/11 06:26:05;;;;;;;70.72;31.77;;;;;;;1.54;100.00;101045.59;5028195;28;20396;-70
2021/12/11 06:28:31;;;;;;;74.80;31.65;;;;;;;1.59;100.00;101047.78;5027998;28;20079;-70
2021/12/11 06:31:02;;;;;;;71.70;32.60;;;;;;;1.65;100.00;101049.81;5027988;28;20028;-71
2021/12/11 06:33:29;;;;;;;67.15;30.65;;;;;;;1.71;100.00;101062.69;5026993;28;20476;-71
2021/12/11 06:36:05;;;;;;;68.25;31.67;;;;;;;1.74;100.00;101056.94;5027255;28;20080;-71
2021/12/11 06:38:32;;;;;;;72.32;32.42;;;;;;;1.76;100.00;101061.16;5027796;28;20035;-70
2021/12/11 06:40:59;;;;;;;72.05;33.05;;;;;;;1.79;100.00;101060.84;5036456;28;20029;-70
2021/12/11 06:43:25;;;;;;;69.57;33.15;;;;;;;1.85;100.00;101067.44;5046817;28;20056;-70
2021/12/11 06:45:52;;;;;;;66.82;32.45;;;;;;;1.87;100.00;101065.41;5047211;28;20075;-70
2021/12/11 06:48:17;;;;;;;68.22;31.52;;;;;;;1.92;100.00;101071.16;5046364;28;20029;-71
2021/12/11 06:50:45;;;;;;;70.43;33.38;;;;;;;1.98;100.00;101073.22;5047017;28;20020;-70
2021/12/11 06:53:17;;;;;;;74.45;35.42;;;;;;;2.02;100.00;101082.66;5047093;28;20033;-70
2021/12/11 06:55:42;;;;;;;87.60;36.90;;;;;;;2.06;100.00;101081.31;5046522;28;20024;-70
2021/12/11 06:58:07;;;;;;;76.55;35.22;;;;;;;2.12;100.00;101077.09;5046525;28;20025;-70
2021/12/11 07:00:33;;;;;;;77.40;34.20;;;;;;;2.15;100.00;101097.59;5045791;28;20396;-70
2021/12/11 07:02:58;;;;;;;84.80;34.92;;;;;;;2.20;100.00;101090.63;5045037;28;20013;-70
2021/12/11 07:05:24;;;;;;;80.18;35.20;;;;;;;2.24;100.00;101099.28;5046615;28;20049;-70
2021/12/11 07:07:49;;;;;;;82.95;36.63;;;;;;;2.27;100.00;101096.22;5046885;28;20067;-69
2021/12/11 07:10:19;;;;;;;85.00;37.75;;;;;;;2.33;100.00;101100.94;5044098;28;20029;-70
2021/12/11 07:12:45;;;;;;;84.10;35.92;;;;;;;2.36;100.00;101102.47;5043352;28;20133;-70
2021/12/11 07:15:10;;;;;;;86.13;38.22;;;;;;;2.38;100.00;101108.56;5046177;28;20523;-70
2021/12/11 07:17:37;;;;;;;91.55;41.83;;;;;;;2.40;100.00;101109.25;5045486;28;20132;-70
2021/12/11 07:20:05;;;;;;;85.40;39.30;;;;;;;2.42;100.00;101115.34;5036979;28;20422;-69
2021/12/11 07:22:30;;;;;;;85.63;40.92;;;;;;;2.45;100.00;101118.56;5047092;28;20036;-70
2021/12/11 07:25:01;;;;;;;85.43;39.08;;;;;;;2.50;100.00;101118.06;5046432;28;20656;-69
2021/12/11 07:27:26;;;;;;;83.68;37.42;;;;;;;2.50;100.00;101118.06;5045765;28;20033;-69
2021/12/11 07:29:52;;;;;;;81.95;38.20;;;;;;;2.54;100.00;101122.97;5027773;28;20327;-70
2021/12/11 07:32:18;;;;;;;74.00;34.13;;;;;;;2.58;100.00;101127.00;5032710;28;20567;-70
2021/12/11 07:34:43;;;;;;;72.85;35.72;;;;;;;2.62;100.00;101126.69;5043576;28;20043;-71
2021/12/11 07:37:10;;;;;;;73.40;35.45;;;;;;;2.67;100.00;101129.72;5037514;28;20044;-70
2021/12/11 07:39:35;;;;;;;73.22;35.17;;;;;;;2.69;100.00;101128.53;5035159;28;20087;-70
2021/12/11 07:42:00;;;;;;;77.53;36.58;;;;;;;2.73;100.00;101132.56;5041946;28;20415;-71
2021/12/11 07:44:27;;;;;;;57.88;27.50;;;;;;;2.80;100.00;101136.31;5045333;28;20013;-71
2021/12/11 07:46:54;;;;;;;58.05;30.00;;;;;;;2.86;100.00;101140.19;5041679;28;20036;-71
2021/12/11 07:49:20;;;;;;;59.33;30.17;;;;;;;2.91;100.00;101143.22;5039861;28;20029;-71
2021/12/11 07:51:45;;;;;;;59.55;31.10;;;;;;;2.95;100.00;101146.44;5038427;28;20079;-70
2021/12/11 07:54:11;;;;;;;57.28;31.15;;;;;;;2.99;100.00;101151.38;5042557;28;20025;-70
2021/12/11 07:56:37;;;;;;;47.28;27.33;;;;;;;3.03;100.00;101149.97;5044842;28;20024;-70
2021/12/11 07:59:06;;;;;;;49.80;27.85;;;;;;;3.12;100.00;101151.63;5038767;28;20033;-70
2021/12/11 08:01:36;;;;;;;46.28;26.13;;;;;;;3.14;100.00;101170.44;5044291;28;20029;-70
2021/12/11 08:04:04;;;;;;;45.38;25.23;;;;;;;3.11;100.00;101160.81;5030779;28;20049;-70
2021/12/11 08:06:31;;;;;;;46.67;24.08;;;;;;;3.10;100.00;101158.28;5026130;28;20105;-70
2021/12/11 08:08:57;;;;;;;42.77;21.53;;;;;;;3.13;100.00;101166.91;5036921;28;20054;-70
2021/12/11 08:11:25;;;;;;;42.63;22.50;;;;;;;3.16;100.00;101176.56;5031132;28;20029;-71
2021/12/11 08:13:51;;;;;;;42.22;21.33;;;;;;;3.14;100.00;101173.16;5045365;28;20025;-70
2021/12/11 08:16:22;;;;;;;34.47;18.65;;;;;;;3.22;100.00;101177.75;5043969;28;20029;-70
2021/12/11 08:18:47;;;;;;;33.35;18.05;;;;;;;3.35;100.00;101191.63;5045333;28;20021;-70
2021/12/11 08:21:13;;;;;;;34.10;18.15;;;;;;;3.48;100.00;101196.47;5042091;28;20044;-70
2021/12/11 08:23:43;;;;;;;32.80;19.10;;;;;;;3.51;100.00;101198.84;5041086;28;20028;-70
2021/12/11 08:26:11;;;;;;;32.28;18.70;;;;;;;3.54;100.00;101210.19;5041383;28;20033;-70
2021/12/11 08:28:37;;;;;;;33.53;16.67;;;;;;;3.61;100.00;101227.50;5044319;28;20438;-70
2021/12/11 08:31:03;;;;;;;37.00;18.23;;;;;;;3.62;100.00;101234.59;5037980;28;20033;-69
2021/12/11 08:33:28;;;;;;;35.80;18.02;;;;;;;3.59;100.00;101234.94;5041143;28;20535;-70
2021/12/11 08:35:54;;;;;;;28.42;14.48;;;;;;;3.64;100.00;101240.69;5041663;28;20071;-70
2021/12/11 08:38:20;;;;;;;25.90;11.90;;;;;;;3.72;100.00;101249.84;5041868;28;20037;-70
2021/12/11 08:40:50;;;;;;;29.73;12.68;;;;;;;3.78;100.00;101246.44;5042973;28;20017;-70
2021/12/11 08:43:17;;;;;;;28.15;11.50;;;;;;;3.84;100.00;101253.88;5039621;28;20428;-70
2021/12/11 08:45:55;;;;;;;28.27;13.95;;;;;;;3.88;100.00;101250.63;5042212;28;20434;-70
2021/12/11 08:48:22;;;;;;;28.80;14.27;;;;;;;3.95;100.00;101253.47;5037556;28;20419;-70
2021/12/11 08:50:51;;;;;;;26.98;13.48;;;;;;;4.01;100.00;101260.09;5040470;28;20567;-70
2021/12/11 08:53:17;;;;;;;25.70;10.98;;;;;;;4.04;100.00;101251.56;5042275;28;20028;-70
2021/12/11 08:55:46;;;;;;;23.48;10.77;;;;;;;4.11;100.00;101267.00;5039653;28;20446;-70
2021/12/11 08:58:16;;;;;;;25.08;10.23;;;;;;;4.16;100.00;101274.63;5040052;28;20065;-70
2021/12/11 09:01:08;;;;;;;21.42;9.70;;;;;;;4.21;100.00;101283.09;5041587;28;20084;-70
2021/12/11 09:03:46;;;;;;;22.27;9.10;;;;;;;4.25;100.00;101295.28;5039076;28;20032;-70
2021/12/11 09:06:21;;;;;;;23.30;8.35;;;;;;;4.28;100.00;101294.09;5039875;28;20553;-70
2021/12/11 09:08:58;;;;;;;20.42;8.38;;;;;;;4.32;100.00;101298.16;5036757;28;20072;-70
2021/12/11 09:11:30;;;;;;;20.38;7.97;;;;;;;4.40;100.00;101308.97;5040418;28;20451;-70
2021/12/11 09:14:08;;;;;;;21.48;8.93;;;;;;;4.48;100.00;101319.78;5037934;28;20032;-70
2021/12/11 09:16:44;;;;;;;19.05;9.43;;;;;;;4.55;100.00;101328.06;5032386;28;20025;-71
2021/12/11 09:19:38;;;;;;;25.50;12.38;;;;;;;4.60;100.00;101334.66;5040328;28;20083;-70
2021/12/11 09:22:22;;;;;;;30.85;13.73;;;;;;;4.65;100.00;101345.00;5033898;28;20043;-70
2021/12/11 09:24:56;;;;;;;29.60;16.35;;;;;;;4.71;100.00;101354.34;5040599;28;20053;-70
2021/12/11 09:27:35;;;;;;;31.33;17.70;;;;;;;4.73;100.00;101357.75;5041525;28;20037;-71
2021/12/11 09:30:09;;;;;;;33.70;20.27;;;;;;;4.72;99.98;101356.91;5041760;28;20021;-70
2021/12/11 09:32:46;;;;;;;40.08;19.52;;;;;;;4.69;100.00;101368.97;5038963;28;20785;-71
2021/12/11 09:35:23;;;;;;;37.20;20.73;;;;;;;4.64;100.00;101370.53;5042433;28;20040;-71
2021/12/11 09:37:53;;;;;;;46.83;24.13;;;;;;;4.62;100.00;101368.00;5041831;28;20456;-71
2021/12/11 09:40:39;;;;;;;48.35;23.02;;;;;;;4.61;100.00;101382.63;5041823;28;20483;-70
2021/12/11 09:43:04;;;;;;;48.35;24.52;;;;;;;4.60;100.00;101385.50;5037882;28;20392;-70
2021/12/11 09:45:39;;;;;;;46.10;25.80;;;;;;;4.65;100.00;101394.00;5040348;28;20035;-71
2021/12/11 09:48:09;;;;;;;45.63;24.92;;;;;;;4.73;100.00;101396.69;5039335;28;23679;-70
2021/12/11 09:50:47;;;;;;;53.92;25.90;;;;;;;4.79;100.00;101398.69;5038717;28;20031;-70
2021/12/11 09:53:15;;;;;;;54.45;28.88;;;;;;;4.80;99.86;101413.97;5040442;28;20033;-70
2021/12/11 09:55:41;;;;;;;48.90;26.42;;;;;;;4.81;99.67;101407.50;5036015;28;20027;-70
2021/12/11 09:58:12;;;;;;;49.45;26.77;;;;;;;4.84;99.70;101414.47;5041832;28;20480;-70
2021/12/11 10:00:51;;;;;;;50.67;26.50;;;;;;;5.01;99.79;101416.03;5038585;28;20074;-70
2021/12/11 10:03:20;;;;;;;55.90;28.65;;;;;;;5.19;99.15;101419.34;5038780;28;20052;-70
2021/12/11 10:05:56;;;;;;;50.10;27.45;;;;;;;5.24;98.40;101423.38;5040073;28;20444;-71
2021/12/11 10:08:32;;;;;;;53.70;27.88;;;;;;;5.31;97.87;101421.63;5039216;28;20029;-70
2021/12/11 10:11:18;;;;;;;47.15;28.08;;;;;;;5.35;97.12;101422.97;5040908;28;20063;-71
2021/12/11 10:13:53;;;;;;;54.60;28.92;;;;;;;5.24;97.20;101426.13;5039335;28;20032;-71
2021/12/11 10:16:24;;;;;;;50.33;28.48;;;;;;;5.25;97.73;101435.97;5039618;28;20091;-71
2021/12/11 10:18:50;;;;;;;58.95;30.42;;;;;;;5.31;97.31;101443.41;5038572;28;20025;-71
2021/12/11 10:21:35;;;;;;;54.70;29.13;;;;;;;5.40;96.64;101448.63;5040168;28;20021;-70
2021/12/11 10:24:07;;;;;;;56.53;29.17;;;;;;;5.53;96.26;101458.06;5041370;28;20021;-71
2021/12/11 10:26:33;;;;;;;56.80;29.77;;;;;;;5.77;96.38;101465.16;5038371;28;20391;-70
2021/12/11 10:29:00;;;;;;;53.45;30.58;;;;;;;6.44;95.70;101460.59;5041465;28;20025;-70
2021/12/11 10:31:30;;;;;;;48.70;29.47;;;;;;;6.93;91.08;101461.84;5037489;28;20033;-71
2021/12/11 10:33:57;;;;;;;50.08;27.48;;;;;;;6.56;89.80;101460.97;5039382;28;20025;-71
2021/12/11 10:36:26;;;;;;;47.22;27.30;;;;;;;6.21;90.49;101466.13;5040820;28;20048;-70
2021/12/11 10:38:52;;;;;;;48.42;27.67;;;;;;;6.24;91.59;101465.78;5039022;28;20452;-71
2021/12/11 10:41:19;;;;;;;50.90;28.83;;;;;;;6.19;91.01;101464.63;5039421;28;20024;-70
2021/12/11 10:43:54;;;;;;;49.28;27.52;;;;;;;6.22;91.61;101466.97;5038435;28;20068;-70
2021/12/11 10:46:23;;;;;;;49.50;27.42;;;;;;;6.43;90.82;101477.13;5033641;28;20029;-71
2021/12/11 10:48:49;;;;;;;49.00;28.83;;;;;;;6.50;90.62;101475.38;5040255;28;20025;-71
2021/12/11 10:51:19;;;;;;;49.35;28.35;;;;;;;6.48;90.74;101478.25;5038822;28;20044;-70
2021/12/11 10:53:46;;;;;;;51.78;28.38;;;;;;;6.64;90.64;101485.44;5041896;28;20033;-70
2021/12/11 10:56:15;;;;;;;46.83;28.30;;;;;;;7.38;89.11;101487.16;5044079;28;20483;-70
2021/12/11 10:58:45;;;;;;;48.13;27.95;;;;;;;7.46;86.50;101487.88;5039536;28;20059;-70
2021/12/11 11:01:15;;;;;;;46.08;26.48;;;;;;;7.93;85.25;101488.31;5042193;28;20120;-70
2021/12/11 11:03:46;;;;;;;38.25;22.95;;;;;;;8.71;81.77;101492.66;5044590;28;20025;-70
2021/12/11 11:06:11;;;;;;;35.40;21.77;;;;;;;8.77;79.48;101505.56;5042926;28;20021;-70
2021/12/11 11:08:37;;;;;;;35.75;22.15;;;;;;;8.28;80.17;101506.47;5042229;28;20514;-69
2021/12/11 11:11:09;;;;;;;37.83;22.52;;;;;;;8.48;81.47;101503.06;5041008;28;20029;-69
2021/12/11 11:13:35;;;;;;;36.92;22.73;;;;;;;9.59;78.51;101499.09;5040357;28;20029;-69
2021/12/11 11:16:00;;;;;;;34.85;21.10;;;;;;;9.94;76.50;101509.06;5038297;28;20029;-69
2021/12/11 11:18:27;;;;;;;37.58;21.33;;;;;;;9.50;76.76;101515.94;5037769;28;20391;-69
2021/12/11 11:21:00;;;;;;;35.40;19.25;;;;;;;8.80;78.89;101531.69;5039822;28;20037;-69
2021/12/11 11:23:26;;;;;;;34.88;20.95;;;;;;;8.32;80.60;101528.81;5040839;28;20024;-69
2021/12/11 11:25:55;;;;;;;35.75;21.17;;;;;;;8.01;81.55;101531.94;5038603;28;20025;-69
2021/12/11 11:28:26;;;;;;;36.47;22.33;;;;;;;7.79;83.22;101534.66;5040274;28;20257;-69
2021/12/11 11:30:56;;;;;;;34.90;21.48;;;;;;;7.92;83.61;101549.53;5039948;28;20025;-69